createdAt,value
2024-02-21T00:00:25.316Z,91.20
2024-02-21T00:02:53.734Z,91.00
2024-02-21T00:05:22.977Z,90.80
2024-02-21T00:07:50.855Z,90.80
2024-02-21T00:10:19.388Z,91.30
2024-02-21T00:12:47.536Z,91.50
2024-02-21T00:15:15.368Z,91.80
2024-02-21T00:17:43.174Z,91.50
2024-02-21T00:20:11.946Z,91.70
2024-02-21T00:22:41.417Z,91.80
2024-02-21T00:25:10.147Z,92.10
2024-02-21T00:27:38.031Z,92.10
2024-02-21T00:30:06.854Z,91.80
2024-02-21T00:32:35.536Z,91.60
2024-02-21T00:35:03.586Z,91.40
2024-02-21T00:37:31.504Z,91.50
2024-02-21T00:40:02.131Z,91.70
2024-02-21T00:42:29.917Z,91.50
2024-02-21T00:44:57.733Z,91.30
2024-02-21T00:47:25.577Z,91.40
2024-02-21T00:49:53.447Z,91.50
2024-02-21T00:52:21.345Z,91.70
2024-02-21T00:54:53.915Z,91.60
2024-02-21T00:57:24.868Z,91.60
2024-02-21T00:59:52.698Z,91.50
2024-02-21T01:02:20.643Z,91.30
2024-02-21T01:04:48.569Z,91.10
2024-02-21T01:07:16.471Z,91.40
2024-02-21T01:09:44.347Z,91.70
2024-02-21T01:12:12.272Z,91.70
2024-02-21T01:14:41.468Z,91.90
2024-02-21T01:17:09.308Z,91.90
2024-02-21T01:19:37.151Z,92.10
2024-02-21T01:22:05.157Z,92.10
2024-02-21T01:24:32.958Z,92.10
2024-02-21T01:27:00.812Z,91.90
2024-02-21T01:29:28.640Z,92.10
2024-02-21T01:31:57.929Z,91.90
2024-02-21T01:34:26.621Z,92.00
2024-02-21T01:36:55.429Z,92.00
2024-02-21T01:39:23.228Z,91.90
2024-02-21T01:41:51.007Z,91.90
2024-02-21T01:44:18.810Z,91.80
2024-02-21T01:46:46.707Z,91.50
2024-02-21T01:49:16.045Z,91.50
2024-02-21T01:51:43.954Z,91.90
2024-02-21T01:54:13.744Z,91.90
2024-02-21T01:56:41.974Z,92.00
2024-02-21T01:59:10.291Z,92.30
2024-02-21T02:01:38.172Z,92.50
2024-02-21T02:04:06.546Z,92.50
2024-02-21T02:06:35.982Z,92.40
2024-02-21T02:09:03.845Z,92.60
2024-02-21T02:11:34.612Z,91.70
2024-02-21T02:14:02.546Z,90.50
2024-02-21T02:16:30.490Z,89.60
2024-02-21T02:18:58.457Z,89.70
2024-02-21T02:21:31.293Z,89.60
2024-02-21T02:24:00.910Z,89.50
2024-02-21T02:26:29.353Z,90.00
2024-02-21T02:28:57.351Z,90.40
2024-02-21T02:31:25.328Z,90.90
2024-02-21T02:33:53.205Z,91.20
2024-02-21T02:36:21.297Z,90.30
2024-02-21T02:38:49.075Z,88.20
2024-02-21T02:41:18.247Z,86.70
2024-02-21T02:43:46.104Z,85.40
2024-02-21T02:46:14.005Z,83.80
2024-02-21T02:48:41.958Z,83.60
2024-02-21T02:51:09.993Z,82.30
2024-02-21T02:53:37.855Z,82.00
2024-02-21T02:56:06.472Z,81.90
2024-02-21T02:58:36.128Z,80.70
2024-02-21T03:01:05.244Z,80.40
2024-02-21T03:03:33.119Z,80.10
2024-02-21T03:06:00.999Z,79.60
2024-02-21T03:08:28.841Z,79.40
2024-02-21T03:10:56.713Z,78.60
2024-02-21T03:13:24.607Z,78.20
2024-02-21T03:15:53.757Z,78.20
2024-02-21T03:18:21.648Z,78.10
2024-02-21T03:20:49.644Z,78.30
2024-02-21T03:23:17.497Z,77.50
2024-02-21T03:25:45.316Z,76.50
2024-02-21T03:28:13.561Z,76.30
2024-02-21T03:30:41.356Z,76.50
2024-02-21T03:33:10.569Z,79.20
2024-02-21T03:35:38.372Z,82.40
2024-02-21T03:38:06.257Z,81.90
2024-02-21T03:40:34.144Z,83.00
2024-02-21T03:43:01.971Z,84.80
2024-02-21T03:45:29.844Z,85.10
2024-02-21T03:47:57.681Z,85.70
2024-02-21T03:50:28.829Z,85.70
2024-02-21T03:52:56.741Z,86.00
2024-02-21T03:55:24.900Z,85.20
2024-02-21T03:57:52.814Z,85.40
2024-02-21T04:00:20.965Z,85.90
2024-02-21T04:02:48.775Z,86.60
2024-02-21T04:05:18.298Z,87.30
2024-02-21T04:07:47.533Z,87.70
2024-02-21T04:10:15.497Z,87.60
2024-02-21T04:12:43.347Z,87.60
2024-02-21T04:15:11.545Z,87.80
2024-02-21T04:17:39.396Z,88.20
2024-02-21T04:20:09.929Z,88.10
2024-02-21T04:22:37.985Z,88.40
2024-02-21T04:25:08.083Z,88.00
2024-02-21T04:27:35.900Z,87.90
2024-02-21T04:30:03.732Z,88.30
2024-02-21T04:32:31.672Z,88.70
2024-02-21T04:34:59.557Z,88.80
2024-02-21T04:37:27.442Z,89.10
2024-02-21T04:39:55.385Z,89.50
2024-02-21T04:42:24.546Z,89.40
2024-02-21T04:44:52.391Z,90.00
2024-02-21T04:47:20.795Z,90.30
2024-02-21T04:49:48.775Z,90.60
2024-02-21T04:52:16.674Z,90.20
2024-02-21T04:54:44.497Z,87.50
2024-02-21T04:57:12.337Z,86.60
2024-02-21T04:59:41.511Z,86.30
2024-02-21T05:02:12.250Z,86.40
2024-02-21T05:04:42.720Z,86.30
2024-02-21T05:07:12.155Z,86.50
2024-02-21T05:09:40.017Z,86.10
2024-02-21T05:12:08.604Z,85.70
2024-02-21T05:14:36.484Z,86.30
2024-02-21T05:17:06.071Z,87.30
2024-02-21T05:19:34.155Z,88.40
2024-02-21T05:22:02.036Z,88.30
2024-02-21T05:24:30.526Z,88.00
2024-02-21T05:26:58.322Z,88.50
2024-02-21T05:29:26.186Z,89.20
2024-02-21T05:31:58.960Z,89.90
2024-02-21T05:34:28.840Z,90.00
2024-02-21T05:36:58.574Z,89.90
2024-02-21T05:39:26.534Z,87.70
2024-02-21T05:41:54.399Z,86.10
2024-02-21T05:44:23.268Z,86.30
2024-02-21T05:46:51.341Z,86.60
2024-02-21T05:49:19.432Z,87.00
2024-02-21T05:51:49.176Z,87.10
2024-02-21T05:54:16.986Z,88.10
2024-02-21T05:56:46.895Z,88.70
2024-02-21T05:59:14.903Z,89.40
2024-02-21T06:01:42.907Z,89.70
2024-02-21T06:04:10.829Z,89.90
2024-02-21T06:06:38.866Z,89.90
2024-02-21T06:09:08.680Z,89.90
2024-02-21T06:11:38.903Z,89.60
2024-02-21T06:14:07.048Z,89.50
2024-02-21T06:16:35.003Z,89.70
2024-02-21T06:19:03.813Z,89.80
2024-02-21T06:21:32.160Z,89.70
2024-02-21T06:23:59.953Z,89.70
2024-02-21T06:26:29.381Z,89.80
2024-02-21T06:28:57.275Z,89.60
2024-02-21T06:31:25.231Z,89.20
2024-02-21T06:33:53.268Z,88.10
2024-02-21T06:36:21.086Z,87.40
2024-02-21T06:38:49.016Z,87.60
2024-02-21T06:41:19.440Z,87.80
2024-02-21T06:43:49.035Z,87.50
2024-02-21T06:46:25.494Z,87.50
2024-02-21T06:48:53.570Z,88.00
2024-02-21T06:51:21.461Z,88.10
2024-02-21T06:53:49.313Z,88.70
2024-02-21T06:56:17.113Z,89.00
2024-02-21T06:58:44.986Z,88.70
2024-02-21T07:01:14.315Z,88.80
2024-02-21T07:03:42.204Z,88.90
2024-02-21T07:06:10.185Z,88.60
2024-02-21T07:08:38.458Z,88.30
2024-02-21T07:11:06.771Z,88.50
2024-02-21T07:13:34.955Z,87.80
2024-02-21T07:16:02.809Z,87.90
2024-02-21T07:18:31.996Z,88.00
2024-02-21T07:20:59.830Z,87.80
2024-02-21T07:23:27.665Z,86.70
2024-02-21T07:25:55.596Z,85.60
2024-02-21T07:28:23.502Z,84.70
2024-02-21T07:30:51.351Z,84.30
2024-02-21T07:33:19.258Z,83.50
2024-02-21T07:35:48.577Z,82.50
2024-02-21T07:38:19.272Z,82.10
2024-02-21T07:40:47.509Z,81.40
2024-02-21T07:43:15.606Z,80.50
2024-02-21T07:45:43.463Z,79.40
2024-02-21T07:48:11.888Z,79.10
2024-02-21T07:50:40.163Z,79.20
2024-02-21T07:53:09.420Z,79.90
2024-02-21T07:55:37.281Z,79.90
2024-02-21T07:58:05.489Z,78.20
2024-02-21T08:00:33.375Z,78.60
2024-02-21T08:03:01.320Z,77.80
2024-02-21T08:05:31.130Z,76.80
2024-02-21T08:07:59.099Z,76.60
2024-02-21T08:10:28.423Z,76.40
2024-02-21T08:12:56.240Z,76.50
2024-02-21T08:15:29.433Z,75.30
2024-02-21T08:18:00.851Z,75.40
2024-02-21T08:20:28.957Z,76.50
2024-02-21T08:22:56.897Z,77.90
2024-02-21T08:25:24.975Z,79.20
2024-02-21T08:27:56.992Z,79.50
2024-02-21T08:30:24.833Z,79.20
2024-02-21T08:32:52.653Z,79.80
2024-02-21T08:35:20.625Z,79.30
2024-02-21T08:37:49.217Z,78.60
2024-02-21T08:40:18.796Z,77.80
2024-02-21T08:42:46.801Z,77.90
2024-02-21T08:45:15.976Z,76.90
2024-02-21T08:47:44.468Z,75.80
2024-02-21T08:50:22.742Z,75.10
2024-02-21T08:52:55.655Z,75.30
2024-02-21T08:55:23.620Z,75.40
2024-02-21T08:57:51.686Z,75.20
2024-02-21T09:00:25.408Z,76.00
2024-02-21T09:02:53.395Z,76.20
2024-02-21T09:05:21.474Z,77.10
2024-02-21T09:07:49.547Z,77.10
2024-02-21T09:10:17.798Z,76.20
2024-02-21T09:12:45.907Z,74.00
2024-02-21T09:15:13.932Z,73.60
2024-02-21T09:17:43.120Z,71.70
2024-02-21T09:20:13.251Z,71.70
2024-02-21T09:22:42.402Z,70.20
2024-02-21T09:25:12.603Z,70.20
2024-02-21T09:27:41.034Z,69.70
2024-02-21T09:30:09.742Z,68.60
2024-02-21T09:32:38.584Z,68.80
2024-02-21T09:35:08.760Z,68.70
2024-02-21T09:37:37.385Z,67.40
2024-02-21T09:40:06.320Z,65.60
2024-02-21T09:42:39.718Z,66.80
2024-02-21T09:45:10.754Z,65.70
2024-02-21T09:47:52.625Z,66.10
2024-02-21T09:50:23.805Z,64.40
2024-02-21T09:52:53.545Z,64.00
2024-02-21T09:55:21.641Z,59.80
2024-02-21T09:57:51.964Z,60.50
2024-02-21T10:00:23.066Z,60.10
2024-02-21T10:02:51.629Z,61.70
2024-02-21T10:05:21.211Z,61.80
2024-02-21T10:07:51.567Z,61.60
2024-02-21T10:10:22.767Z,61.10
2024-02-21T10:12:51.838Z,59.20
2024-02-21T10:15:24.772Z,59.80
2024-02-21T10:18:01.146Z,59.70
2024-02-21T10:20:30.458Z,59.00
2024-02-21T10:23:09.496Z,56.80
2024-02-21T10:25:39.401Z,55.50
2024-02-21T10:28:07.461Z,56.40
2024-02-21T10:30:35.341Z,54.90
2024-02-21T10:33:03.253Z,57.40
2024-02-21T10:35:33.716Z,56.50
2024-02-21T10:38:02.322Z,54.90
2024-02-21T10:40:32.000Z,53.50
2024-02-21T10:43:01.483Z,53.70
2024-02-21T10:45:35.309Z,52.80
2024-02-21T10:48:10.945Z,53.60
2024-02-21T10:50:55.725Z,51.90
2024-02-21T10:53:38.029Z,51.90
2024-02-21T10:56:14.368Z,50.10
2024-02-21T10:58:44.041Z,50.30
2024-02-21T11:01:14.054Z,49.70
2024-02-21T11:03:42.139Z,49.20
2024-02-21T11:06:12.599Z,49.80
2024-02-21T11:08:40.461Z,48.60
2024-02-21T11:11:10.749Z,46.90
2024-02-21T11:13:40.570Z,47.90
2024-02-21T11:16:11.246Z,47.20
2024-02-21T11:18:39.521Z,44.90
2024-02-21T11:21:07.937Z,46.30
2024-02-21T11:23:37.063Z,44.80
2024-02-21T11:26:09.174Z,45.20
2024-02-21T11:28:38.790Z,43.40
2024-02-21T11:31:11.215Z,40.10
2024-02-21T11:33:42.139Z,39.80
2024-02-21T11:36:10.558Z,38.90
2024-02-21T11:38:39.784Z,38.70
2024-02-21T11:41:13.550Z,38.90
2024-02-21T11:43:42.609Z,37.70
2024-02-21T11:46:10.777Z,37.20
2024-02-21T11:48:39.691Z,37.80
2024-02-21T11:51:07.546Z,37.70
2024-02-21T11:53:38.489Z,38.60
2024-02-21T11:56:14.164Z,37.90
2024-02-21T11:58:42.392Z,36.80
2024-02-21T12:01:10.379Z,38.30
2024-02-21T12:03:38.529Z,34.30
2024-02-21T12:06:08.758Z,33.90
2024-02-21T12:08:44.484Z,34.60
2024-02-21T12:11:21.863Z,35.00
2024-02-21T12:13:49.901Z,34.10
2024-02-21T12:16:19.377Z,33.60
2024-02-21T12:18:47.542Z,36.20
2024-02-21T12:21:15.619Z,34.10
2024-02-21T12:23:43.416Z,34.50
2024-02-21T12:26:11.648Z,35.40
2024-02-21T12:28:40.828Z,35.70
2024-02-21T12:31:08.701Z,35.70
2024-02-21T12:33:36.694Z,36.70
2024-02-21T12:36:05.794Z,36.10
2024-02-21T12:38:33.688Z,36.30
2024-02-21T12:41:01.758Z,35.20
2024-02-21T12:43:29.994Z,35.20
2024-02-21T12:45:59.305Z,36.00
2024-02-21T12:48:27.305Z,36.90
2024-02-21T12:50:55.155Z,34.80
2024-02-21T12:53:29.084Z,36.10
2024-02-21T12:56:01.495Z,36.10
2024-02-21T12:58:32.572Z,35.90
2024-02-21T13:01:01.974Z,36.00
2024-02-21T13:03:33.552Z,37.00
2024-02-21T13:06:02.189Z,35.70
2024-02-21T13:08:30.421Z,36.50
2024-02-21T13:10:58.535Z,36.70
2024-02-21T13:13:26.474Z,36.50
2024-02-21T13:15:54.338Z,35.60
2024-02-21T13:18:23.609Z,37.90
2024-02-21T13:20:51.619Z,36.70
2024-02-21T13:23:19.553Z,37.30
2024-02-21T13:25:48.101Z,36.30
2024-02-21T13:28:17.456Z,38.00
2024-02-21T13:30:45.760Z,35.60
2024-02-21T13:33:13.742Z,33.00
2024-02-21T13:35:43.104Z,34.40
2024-02-21T13:38:11.164Z,36.10
2024-02-21T13:40:39.839Z,36.30
2024-02-21T13:43:10.073Z,37.50
2024-02-21T13:45:39.338Z,35.60
2024-02-21T13:48:11.869Z,36.90
2024-02-21T13:50:43.913Z,37.30
2024-02-21T13:53:13.104Z,36.90
2024-02-21T13:55:42.119Z,37.10
2024-02-21T13:58:10.058Z,39.60
2024-02-21T14:00:38.008Z,38.50
2024-02-21T14:03:06.314Z,38.50
2024-02-21T14:05:34.344Z,37.90
2024-02-21T14:08:02.202Z,39.60
2024-02-21T14:10:31.516Z,36.90
2024-02-21T14:12:59.415Z,38.00
2024-02-21T14:15:27.325Z,39.70
2024-02-21T14:17:56.619Z,38.70
2024-02-21T14:20:24.681Z,37.30
2024-02-21T14:22:52.703Z,40.00
2024-02-21T14:25:20.879Z,42.20
2024-02-21T14:27:50.346Z,42.80
2024-02-21T14:30:18.260Z,42.30
2024-02-21T14:32:47.286Z,42.60
2024-02-21T14:35:16.697Z,43.50
2024-02-21T14:37:44.751Z,43.20
2024-02-21T14:40:13.846Z,43.30
2024-02-21T14:42:41.742Z,43.80
2024-02-21T14:45:11.648Z,44.20
2024-02-21T14:47:39.874Z,44.90
2024-02-21T14:50:09.179Z,44.20
2024-02-21T14:52:37.808Z,45.00
2024-02-21T14:55:07.165Z,44.60
2024-02-21T14:57:34.989Z,45.40
2024-02-21T15:00:04.013Z,45.40
2024-02-21T15:02:33.240Z,45.10
2024-02-21T15:05:01.277Z,45.80
2024-02-21T15:07:29.506Z,46.40
2024-02-21T15:09:58.097Z,46.60
2024-02-21T15:12:25.943Z,46.80
2024-02-21T15:14:53.954Z,46.70
2024-02-21T15:17:21.800Z,47.00
2024-02-21T15:19:51.376Z,46.90
2024-02-21T15:22:20.933Z,47.40
2024-02-21T15:24:49.713Z,47.90
2024-02-21T15:27:17.806Z,49.20
2024-02-21T15:29:45.790Z,48.40
2024-02-21T15:32:13.764Z,48.00
2024-02-21T15:34:41.922Z,48.40
2024-02-21T15:37:12.754Z,47.40
2024-02-21T15:39:40.594Z,47.20
2024-02-21T15:42:08.645Z,46.90
2024-02-21T15:44:36.494Z,47.60
2024-02-21T15:47:04.419Z,48.00
2024-02-21T15:49:32.423Z,47.60
2024-02-21T15:52:00.338Z,47.80
2024-02-21T15:54:29.532Z,47.30
2024-02-21T15:56:58.043Z,48.10
2024-02-21T15:59:25.927Z,48.00
2024-02-21T16:01:53.824Z,47.50
2024-02-21T16:04:21.856Z,47.50
2024-02-21T16:06:52.470Z,47.90
2024-02-21T16:09:20.546Z,46.70
2024-02-21T16:11:50.978Z,45.50
2024-02-21T16:14:19.468Z,45.20
2024-02-21T16:16:47.457Z,44.70
2024-02-21T16:19:15.402Z,42.70
2024-02-21T16:21:43.509Z,43.40
2024-02-21T16:24:12.194Z,43.70
2024-02-21T16:26:40.431Z,42.80
2024-02-21T16:29:09.813Z,42.30
2024-02-21T16:31:38.206Z,41.90
2024-02-21T16:34:06.341Z,41.80
2024-02-21T16:36:34.231Z,42.10
2024-02-21T16:39:03.843Z,42.80
2024-02-21T16:41:31.652Z,42.30
2024-02-21T16:43:59.581Z,42.10
2024-02-21T16:46:28.834Z,41.70
2024-02-21T16:48:56.657Z,41.60
2024-02-21T16:51:24.540Z,41.90
2024-02-21T16:53:52.772Z,41.70
2024-02-21T16:56:21.426Z,41.60
2024-02-21T16:58:49.434Z,42.00
2024-02-21T17:01:17.462Z,42.70
2024-02-21T17:03:47.069Z,42.30
2024-02-21T17:06:17.938Z,42.60
2024-02-21T17:08:47.176Z,43.00
2024-02-21T17:11:15.504Z,44.20
2024-02-21T17:13:43.797Z,43.70
2024-02-21T17:16:12.989Z,44.10
2024-02-21T17:18:41.409Z,43.00
2024-02-21T17:21:10.978Z,43.90
2024-02-21T17:23:38.774Z,44.10
2024-02-21T17:26:07.927Z,44.80
2024-02-21T17:28:36.018Z,44.20
2024-02-21T17:31:03.938Z,43.60
2024-02-21T17:33:31.968Z,42.40
2024-02-21T17:35:59.901Z,42.50
2024-02-21T17:38:30.830Z,43.20
2024-02-21T17:40:58.746Z,43.00
2024-02-21T17:43:27.232Z,43.40
2024-02-21T17:45:57.280Z,42.80
2024-02-21T17:48:25.475Z,43.40
2024-02-21T17:50:53.345Z,43.40
2024-02-21T17:53:21.375Z,43.70
2024-02-21T17:55:50.734Z,42.70
2024-02-21T17:58:19.463Z,42.60
2024-02-21T18:00:47.644Z,42.70
2024-02-21T18:03:17.292Z,42.80
2024-02-21T18:05:47.127Z,43.40
2024-02-21T18:08:15.084Z,42.80
2024-02-21T18:10:43.008Z,43.50
2024-02-21T18:13:12.182Z,43.10
2024-02-21T18:15:40.180Z,42.50
2024-02-21T18:18:08.293Z,41.70
2024-02-21T18:20:37.676Z,42.10
2024-02-21T18:23:05.811Z,42.30
2024-02-21T18:25:34.200Z,42.90
2024-02-21T18:28:02.152Z,42.80
2024-02-21T18:30:32.692Z,42.50
2024-02-21T18:33:03.346Z,42.70
2024-02-21T18:35:32.107Z,43.70
2024-02-21T18:38:00.258Z,43.40
2024-02-21T18:40:29.240Z,43.80
2024-02-21T18:42:58.741Z,44.70
2024-02-21T18:45:26.890Z,44.80
2024-02-21T18:47:56.083Z,45.10
2024-02-21T18:50:24.092Z,45.00
2024-02-21T18:52:53.845Z,45.50
2024-02-21T18:55:21.880Z,46.20
2024-02-21T18:57:49.923Z,46.90
2024-02-21T19:00:23.542Z,47.60
2024-02-21T19:02:51.394Z,47.80
2024-02-21T19:05:22.846Z,46.00
2024-02-21T19:07:51.063Z,46.40
2024-02-21T19:10:18.947Z,45.90
2024-02-21T19:12:46.941Z,46.40
2024-02-21T19:15:14.890Z,46.50
2024-02-21T19:17:42.905Z,46.50
2024-02-21T19:20:12.416Z,46.80
2024-02-21T19:22:43.549Z,46.90
2024-02-21T19:25:18.151Z,47.80
2024-02-21T19:27:46.168Z,48.50
2024-02-21T19:30:14.437Z,49.20
2024-02-21T19:32:42.980Z,49.80
2024-02-21T19:35:12.483Z,50.40
2024-02-21T19:37:42.227Z,50.70
2024-02-21T19:40:11.474Z,51.40
2024-02-21T19:42:39.342Z,51.70
2024-02-21T19:45:08.343Z,52.00
2024-02-21T19:47:36.713Z,52.10
2024-02-21T19:50:05.612Z,52.50
2024-02-21T19:52:33.519Z,52.50
2024-02-21T19:55:02.848Z,53.00
2024-02-21T19:57:30.667Z,52.70
2024-02-21T20:00:00.548Z,52.30
2024-02-21T20:02:28.508Z,52.20
2024-02-21T20:04:56.567Z,52.50
2024-02-21T20:07:25.754Z,52.90
2024-02-21T20:09:54.024Z,53.50
2024-02-21T20:12:26.272Z,53.90
2024-02-21T20:14:55.063Z,54.20
2024-02-21T20:17:23.313Z,54.10
2024-02-21T20:19:52.565Z,54.90
2024-02-21T20:22:21.315Z,55.00
2024-02-21T20:24:49.463Z,55.70
2024-02-21T20:27:17.316Z,56.10
2024-02-21T20:29:46.546Z,56.10
2024-02-21T20:32:14.606Z,55.80
2024-02-21T20:34:42.569Z,56.00
2024-02-21T20:37:12.189Z,55.90
2024-02-21T20:39:40.196Z,56.40
2024-02-21T20:42:09.575Z,56.40
2024-02-21T20:44:37.434Z,56.90
2024-02-21T20:47:07.424Z,55.50
2024-02-21T20:49:35.356Z,55.10
2024-02-21T20:52:04.162Z,54.20
2024-02-21T20:54:32.020Z,52.90
2024-02-21T20:56:59.879Z,53.10
2024-02-21T20:59:27.812Z,53.40
2024-02-21T21:02:02.604Z,53.50
2024-02-21T21:04:33.492Z,52.80
2024-02-21T21:07:02.286Z,53.30
2024-02-21T21:09:30.255Z,53.00
2024-02-21T21:11:58.257Z,52.40
2024-02-21T21:14:27.862Z,52.20
2024-02-21T21:16:56.593Z,52.40
2024-02-21T21:19:24.707Z,52.70
2024-02-21T21:21:54.311Z,52.70
2024-02-21T21:24:22.167Z,51.90
2024-02-21T21:26:49.971Z,52.30
2024-02-21T21:29:17.866Z,51.10
2024-02-21T21:31:45.804Z,50.40
2024-02-21T21:34:14.572Z,50.70
2024-02-21T21:36:42.464Z,50.70
2024-02-21T21:39:11.651Z,51.30
2024-02-21T21:41:39.478Z,50.90
2024-02-21T21:44:07.407Z,51.10
2024-02-21T21:46:35.555Z,51.00
2024-02-21T21:49:03.872Z,50.90
2024-02-21T21:51:31.800Z,50.40
2024-02-21T21:53:59.617Z,50.10
2024-02-21T21:56:28.774Z,49.80
2024-02-21T21:58:56.649Z,49.60
2024-02-21T22:01:28.677Z,49.10
2024-02-21T22:03:56.632Z,49.80
2024-02-21T22:06:24.523Z,48.10
2024-02-21T22:08:53.313Z,47.60
2024-02-21T22:11:21.441Z,47.00
2024-02-21T22:13:50.726Z,47.00
2024-02-21T22:16:18.628Z,46.70
2024-02-21T22:18:46.730Z,45.30
2024-02-21T22:21:14.683Z,45.60
2024-02-21T22:23:45.716Z,45.10
2024-02-21T22:26:16.315Z,44.10
2024-02-21T22:28:45.571Z,43.70
2024-02-21T22:31:16.583Z,44.30
2024-02-21T22:33:44.497Z,44.80
2024-02-21T22:36:17.107Z,44.50
2024-02-21T22:38:47.758Z,44.60
2024-02-21T22:41:15.687Z,45.10
2024-02-21T22:43:44.352Z,44.70
2024-02-21T22:46:12.653Z,44.60
2024-02-21T22:48:41.891Z,46.00
2024-02-21T22:51:10.464Z,47.60
2024-02-21T22:53:38.425Z,46.60
2024-02-21T22:56:07.092Z,47.70
2024-02-21T22:58:34.990Z,49.30
2024-02-21T23:01:02.947Z,50.40
2024-02-21T23:03:31.023Z,51.70
2024-02-21T23:06:00.432Z,52.30
2024-02-21T23:08:28.461Z,51.90
2024-02-21T23:10:57.330Z,52.00
2024-02-21T23:13:25.432Z,51.20
2024-02-21T23:15:53.273Z,51.00
2024-02-21T23:18:21.083Z,51.60
2024-02-21T23:20:50.006Z,51.00
2024-02-21T23:23:19.296Z,51.40
2024-02-21T23:25:47.166Z,51.20
2024-02-21T23:28:15.098Z,50.10
2024-02-21T23:30:42.884Z,51.20
2024-02-21T23:33:10.839Z,50.90
2024-02-21T23:35:39.710Z,50.80
2024-02-21T23:38:10.313Z,51.20
2024-02-21T23:40:39.964Z,51.20
2024-02-21T23:43:07.822Z,51.30
2024-02-21T23:45:35.830Z,51.00
2024-02-21T23:48:03.975Z,51.00
2024-02-21T23:50:32.121Z,51.30
2024-02-21T23:53:00.133Z,50.50
2024-02-21T23:55:31.148Z,49.20
2024-02-21T23:58:00.680Z,48.90
